createdAt,value
2017-04-16T00:00:43.418Z,14.26
2017-04-16T00:01:44.015Z,14.20
2017-04-16T00:02:44.633Z,14.18
2017-04-16T00:03:45.230Z,14.12
2017-04-16T00:04:45.836Z,14.15
2017-04-16T00:05:46.429Z,14.12
2017-04-16T00:06:47.032Z,14.10
2017-04-16T00:07:47.635Z,14.14
2017-04-16T00:08:48.246Z,14.11
2017-04-16T00:09:48.845Z,14.12
2017-04-16T00:10:49.449Z,14.12
2017-04-16T00:11:50.050Z,14.12
2017-04-16T00:12:50.645Z,14.10
2017-04-16T00:13:51.243Z,14.07
2017-04-16T00:14:51.847Z,14.08
2017-04-16T00:15:52.460Z,14.10
2017-04-16T00:16:53.059Z,14.04
2017-04-16T00:17:53.672Z,14.12
2017-04-16T00:18:54.269Z,14.07
2017-04-16T00:19:54.876Z,14.07
2017-04-16T00:20:55.470Z,14.14
2017-04-16T00:21:56.067Z,14.07
2017-04-16T00:22:56.665Z,14.07
2017-04-16T00:23:57.263Z,14.05
2017-04-16T00:24:57.862Z,14.08
2017-04-16T00:25:58.475Z,14.03
2017-04-16T00:26:59.073Z,14.07
2017-04-16T00:27:59.672Z,14.00
2017-04-16T00:29:00.269Z,14.00
2017-04-16T00:30:00.866Z,13.96
2017-04-16T00:31:01.465Z,13.97
2017-04-16T00:32:02.067Z,13.99
2017-04-16T00:33:02.662Z,13.95
2017-04-16T00:34:03.261Z,13.97
2017-04-16T00:35:03.864Z,13.89
2017-04-16T00:36:04.458Z,13.96
2017-04-16T00:37:05.055Z,14.05
2017-04-16T00:38:05.655Z,13.99
2017-04-16T00:39:06.254Z,13.95
2017-04-16T00:40:06.865Z,13.99
2017-04-16T00:41:07.479Z,13.95
2017-04-16T00:42:08.083Z,13.95
2017-04-16T00:43:08.677Z,14.03
2017-04-16T00:44:09.276Z,13.97
2017-04-16T00:45:09.881Z,14.00
2017-04-16T00:46:10.475Z,14.03
2017-04-16T00:47:11.074Z,13.99
2017-04-16T00:48:11.672Z,13.97
2017-04-16T00:49:12.274Z,13.99
2017-04-16T00:50:12.875Z,14.03
2017-04-16T00:51:13.493Z,13.93
2017-04-16T00:52:14.106Z,13.99
2017-04-16T00:53:14.702Z,14.00
2017-04-16T00:54:15.303Z,13.97
2017-04-16T00:55:15.906Z,14.03
2017-04-16T00:56:16.501Z,13.99
2017-04-16T00:57:17.120Z,13.95
2017-04-16T00:58:17.737Z,13.99
2017-04-16T00:59:18.346Z,13.95
2017-04-16T01:00:18.945Z,13.87
2017-04-16T01:01:19.542Z,13.95
2017-04-16T01:02:20.140Z,13.92
2017-04-16T01:03:20.736Z,13.86
2017-04-16T01:04:21.334Z,13.93
2017-04-16T01:05:21.939Z,13.83
2017-04-16T01:06:22.534Z,13.81
2017-04-16T01:07:23.131Z,13.79
2017-04-16T01:08:23.729Z,13.78
2017-04-16T01:09:24.348Z,13.70
2017-04-16T01:10:24.944Z,13.68
2017-04-16T01:11:25.541Z,13.75
2017-04-16T01:12:26.155Z,13.63
2017-04-16T01:13:26.758Z,13.65
2017-04-16T01:14:27.360Z,13.56
2017-04-16T01:15:27.955Z,13.56
2017-04-16T01:16:28.552Z,13.54
2017-04-16T01:17:29.149Z,13.53
2017-04-16T01:18:29.748Z,13.47
2017-04-16T01:19:30.344Z,13.50
2017-04-16T01:20:30.947Z,13.50
2017-04-16T01:21:31.543Z,13.44
2017-04-16T01:22:32.140Z,13.42
2017-04-16T01:23:32.737Z,13.38
2017-04-16T01:24:33.335Z,13.35
2017-04-16T01:25:33.939Z,13.23
2017-04-16T01:26:34.535Z,13.27
2017-04-16T01:27:35.153Z,13.19
2017-04-16T01:28:35.749Z,13.15
2017-04-16T01:29:36.367Z,13.19
2017-04-16T01:30:36.964Z,13.12
2017-04-16T01:31:37.560Z,13.23
2017-04-16T01:32:38.172Z,13.03
2017-04-16T01:33:38.770Z,13.20
2017-04-16T01:34:39.373Z,13.04
2017-04-16T01:35:39.975Z,13.19
2017-04-16T01:36:40.776Z,13.04
2017-04-16T01:37:41.372Z,13.08
2017-04-16T01:38:41.971Z,13.16
2017-04-16T01:39:42.584Z,13.12
2017-04-16T01:40:43.183Z,13.16
2017-04-16T01:41:43.781Z,13.03
2017-04-16T01:42:44.384Z,13.13
2017-04-16T01:43:44.978Z,13.15
2017-04-16T01:44:45.577Z,13.15
2017-04-16T01:45:46.174Z,13.19
2017-04-16T01:46:46.780Z,13.15
2017-04-16T01:47:47.373Z,13.01
2017-04-16T01:48:47.971Z,13.16
2017-04-16T01:49:48.568Z,13.03
2017-04-16T01:50:49.166Z,13.22
2017-04-16T01:51:49.771Z,13.03
2017-04-16T01:52:50.366Z,13.11
2017-04-16T01:53:50.962Z,13.00
2017-04-16T01:54:51.560Z,13.08
2017-04-16T01:55:52.160Z,13.03
2017-04-16T01:56:52.825Z,13.16
2017-04-16T01:57:53.421Z,13.12
2017-04-16T01:58:54.023Z,13.19
2017-04-16T01:59:54.627Z,13.18
2017-04-16T02:00:55.220Z,13.15
2017-04-16T02:01:55.825Z,13.12
2017-04-16T02:02:56.419Z,13.13
2017-04-16T02:03:57.019Z,13.16
2017-04-16T02:04:57.616Z,13.11
2017-04-16T02:05:58.217Z,13.19
2017-04-16T02:06:58.811Z,13.19
2017-04-16T02:07:59.411Z,13.13
2017-04-16T02:09:00.006Z,13.15
2017-04-16T02:10:00.603Z,13.13
2017-04-16T02:11:01.206Z,13.16
2017-04-16T02:12:01.808Z,13.13
2017-04-16T02:13:02.408Z,13.18
2017-04-16T02:14:03.002Z,13.23
2017-04-16T02:15:03.598Z,13.11
2017-04-16T02:16:04.200Z,13.13
2017-04-16T02:17:04.801Z,13.09
2017-04-16T02:18:05.420Z,13.08
2017-04-16T02:19:06.014Z,13.01
2017-04-16T02:20:06.612Z,13.03
2017-04-16T02:21:07.210Z,13.09
2017-04-16T02:22:07.814Z,13.12
2017-04-16T02:23:08.408Z,13.08
2017-04-16T02:24:09.004Z,13.05
2017-04-16T02:25:09.608Z,13.01
2017-04-16T02:26:10.202Z,12.98
2017-04-16T02:27:10.799Z,12.91
2017-04-16T02:28:11.398Z,12.93
2017-04-16T02:29:12.001Z,12.86
2017-04-16T02:30:12.593Z,12.80
2017-04-16T02:31:13.190Z,12.87
2017-04-16T02:32:13.788Z,12.90
2017-04-16T02:33:14.401Z,12.79
2017-04-16T02:34:14.999Z,12.75
2017-04-16T02:35:15.601Z,12.72
2017-04-16T02:36:16.197Z,12.72
2017-04-16T02:37:16.794Z,12.78
2017-04-16T02:38:17.391Z,12.70
2017-04-16T02:39:17.987Z,12.76
2017-04-16T02:40:18.586Z,12.75
2017-04-16T02:41:19.184Z,12.73
2017-04-16T02:42:19.781Z,12.78
2017-04-16T02:43:20.378Z,12.67
2017-04-16T02:44:20.981Z,12.70
2017-04-16T02:45:21.574Z,12.73
2017-04-16T02:46:22.171Z,12.78
2017-04-16T02:47:22.782Z,12.82
2017-04-16T02:48:23.381Z,12.68
2017-04-16T02:49:23.983Z,12.68
2017-04-16T02:50:24.579Z,12.79
2017-04-16T02:51:25.177Z,12.80
2017-04-16T02:52:25.774Z,12.73
2017-04-16T02:53:26.371Z,12.73
2017-04-16T02:54:26.966Z,12.76
2017-04-16T02:55:27.565Z,12.78
2017-04-16T02:56:28.311Z,12.72
2017-04-16T02:57:28.907Z,12.83
2017-04-16T02:58:29.505Z,12.79
2017-04-16T02:59:30.118Z,12.78
2017-04-16T03:00:30.716Z,12.79
2017-04-16T03:01:31.316Z,12.85
2017-04-16T03:02:31.917Z,12.82
2017-04-16T03:03:32.511Z,12.82
2017-04-16T03:04:33.115Z,12.80
2017-04-16T03:05:33.710Z,12.82
2017-04-16T03:06:34.306Z,12.79
2017-04-16T03:07:34.907Z,12.76
2017-04-16T03:08:35.501Z,12.82
2017-04-16T03:09:36.102Z,12.76
2017-04-16T03:10:36.697Z,12.78
2017-04-16T03:11:37.295Z,12.82
2017-04-16T03:12:37.894Z,12.83
2017-04-16T03:13:38.496Z,12.79
2017-04-16T03:14:39.094Z,12.83
2017-04-16T03:15:39.690Z,12.91
2017-04-16T03:16:40.286Z,12.82
2017-04-16T03:17:40.904Z,12.80
2017-04-16T03:18:41.504Z,12.78
2017-04-16T03:19:42.098Z,12.79
2017-04-16T03:20:42.697Z,12.90
2017-04-16T03:21:43.293Z,12.85
2017-04-16T03:22:43.896Z,12.83
2017-04-16T03:23:44.497Z,12.91
2017-04-16T03:24:45.092Z,12.93
2017-04-16T03:25:45.688Z,12.91
2017-04-16T03:26:46.286Z,12.91
2017-04-16T03:27:46.899Z,12.95
2017-04-16T03:28:47.500Z,12.93
2017-04-16T03:29:48.118Z,12.98
2017-04-16T03:30:48.711Z,12.87
2017-04-16T03:31:49.308Z,12.94
2017-04-16T03:32:49.910Z,12.91
2017-04-16T03:33:50.510Z,12.95
2017-04-16T03:34:51.107Z,12.90
2017-04-16T03:35:51.719Z,12.91
2017-04-16T03:36:52.316Z,12.93
2017-04-16T03:37:52.913Z,12.95
2017-04-16T03:38:53.518Z,12.87
2017-04-16T03:39:54.112Z,12.91
2017-04-16T03:40:54.709Z,12.93
2017-04-16T03:41:55.306Z,12.91
2017-04-16T03:42:55.911Z,12.95
2017-04-16T03:43:56.511Z,12.93
2017-04-16T03:44:57.104Z,12.93
2017-04-16T03:45:57.701Z,12.95
2017-04-16T03:46:58.300Z,12.97
2017-04-16T03:47:58.895Z,12.98
2017-04-16T03:48:59.492Z,13.00
2017-04-16T03:50:00.090Z,12.97
2017-04-16T03:51:00.710Z,13.00
2017-04-16T03:52:01.288Z,13.05
2017-04-16T03:53:01.885Z,13.01
2017-04-16T03:54:02.488Z,13.05
2017-04-16T03:55:03.100Z,13.09
2017-04-16T03:56:03.698Z,13.08
2017-04-16T03:57:04.295Z,13.08
2017-04-16T03:58:04.895Z,13.09
2017-04-16T03:59:05.493Z,13.03
2017-04-16T04:00:06.090Z,13.08
2017-04-16T04:01:06.687Z,13.05
2017-04-16T04:02:07.290Z,13.08
2017-04-16T04:03:07.890Z,13.09
2017-04-16T04:04:08.504Z,13.11
2017-04-16T04:05:09.101Z,13.13
2017-04-16T04:06:09.699Z,13.03
2017-04-16T04:07:10.297Z,13.04
2017-04-16T04:08:10.895Z,13.13
2017-04-16T04:09:11.492Z,13.13
2017-04-16T04:10:12.090Z,13.01
2017-04-16T04:11:12.689Z,13.18
2017-04-16T04:12:13.285Z,13.11
2017-04-16T04:13:13.881Z,13.04
2017-04-16T04:14:14.486Z,13.00
2017-04-16T04:15:15.080Z,13.12
2017-04-16T04:16:15.677Z,13.09
2017-04-16T04:17:16.274Z,13.05
2017-04-16T04:18:16.871Z,13.09
2017-04-16T04:19:17.487Z,13.09
2017-04-16T04:20:18.087Z,13.09
2017-04-16T04:21:18.681Z,13.05
2017-04-16T04:22:19.294Z,13.08
2017-04-16T04:23:19.892Z,13.11
2017-04-16T04:24:20.490Z,13.08
2017-04-16T04:25:21.087Z,13.12
2017-04-16T04:26:21.684Z,13.11
2017-04-16T04:27:22.288Z,13.08
2017-04-16T04:28:22.887Z,13.12
2017-04-16T04:29:23.483Z,13.12
2017-04-16T04:30:24.080Z,13.15
2017-04-16T04:31:24.676Z,13.15
2017-04-16T04:32:25.275Z,13.09
2017-04-16T04:33:25.870Z,13.03
2017-04-16T04:34:26.468Z,13.18
2017-04-16T04:35:27.065Z,13.04
2017-04-16T04:36:27.664Z,13.15
2017-04-16T04:37:28.268Z,13.18
2017-04-16T04:38:28.862Z,13.15
2017-04-16T04:39:29.460Z,13.12
2017-04-16T04:40:30.058Z,13.12
2017-04-16T04:41:30.658Z,13.09
2017-04-16T04:42:31.255Z,13.08
2017-04-16T04:43:31.854Z,13.04
2017-04-16T04:44:32.453Z,13.12
2017-04-16T04:45:33.053Z,13.15
2017-04-16T04:46:33.654Z,13.11
2017-04-16T04:47:34.266Z,13.12
2017-04-16T04:48:34.864Z,13.04
2017-04-16T04:49:35.468Z,13.13
2017-04-16T04:50:36.065Z,13.09
2017-04-16T04:51:36.679Z,13.09
2017-04-16T04:52:37.277Z,13.09
2017-04-16T04:53:37.890Z,13.12
2017-04-16T04:54:38.488Z,13.13
2017-04-16T04:55:39.086Z,13.01
2017-04-16T04:56:39.685Z,13.08
2017-04-16T04:57:40.289Z,13.03
2017-04-16T04:58:40.905Z,13.05
2017-04-16T04:59:41.502Z,13.04
2017-04-16T05:00:42.116Z,13.05
2017-04-16T05:01:42.714Z,13.04
2017-04-16T05:02:43.313Z,13.05
2017-04-16T05:03:43.917Z,13.11
2017-04-16T05:04:44.517Z,13.12
2017-04-16T05:05:45.113Z,13.11
2017-04-16T05:06:45.715Z,13.08
2017-04-16T05:07:46.312Z,13.04
2017-04-16T05:08:46.916Z,13.08
2017-04-16T05:09:47.532Z,13.12
2017-04-16T05:10:48.131Z,13.09
2017-04-16T05:11:48.730Z,13.08
2017-04-16T05:12:49.352Z,13.05
2017-04-16T05:13:49.949Z,13.08
2017-04-16T05:14:50.555Z,13.11
2017-04-16T05:15:51.158Z,13.04
2017-04-16T05:16:51.751Z,13.04
2017-04-16T05:17:52.357Z,13.00
2017-04-16T05:18:52.960Z,12.97
2017-04-16T05:19:53.581Z,13.03
2017-04-16T05:20:54.178Z,12.97
2017-04-16T05:21:54.777Z,12.98
2017-04-16T05:22:55.379Z,12.97
2017-04-16T05:23:55.985Z,12.97
2017-04-16T05:24:56.580Z,12.93
2017-04-16T05:25:57.178Z,12.93
2017-04-16T05:26:57.778Z,12.97
2017-04-16T05:27:58.383Z,12.91
2017-04-16T05:28:58.999Z,12.86
2017-04-16T05:29:59.597Z,12.87
2017-04-16T05:31:00.196Z,12.82
2017-04-16T05:32:00.799Z,12.86
2017-04-16T05:33:01.705Z,12.83
2017-04-16T05:34:02.379Z,12.79
2017-04-16T05:35:02.978Z,12.76
2017-04-16T05:36:03.579Z,12.80
2017-04-16T05:37:04.429Z,12.76
2017-04-16T05:38:05.031Z,12.76
2017-04-16T05:39:05.882Z,12.82
2017-04-16T05:40:06.503Z,12.79
2017-04-16T05:41:07.100Z,12.76
2017-04-16T05:42:07.702Z,12.86
2017-04-16T05:43:08.322Z,12.85
2017-04-16T05:44:08.901Z,12.76
2017-04-16T05:45:09.502Z,12.80
2017-04-16T05:46:10.104Z,12.76
2017-04-16T05:47:10.709Z,12.79
2017-04-16T05:48:11.312Z,12.79
2017-04-16T05:49:11.908Z,12.86
2017-04-16T05:50:12.509Z,12.83
2017-04-16T05:51:13.125Z,12.86
2017-04-16T05:52:13.745Z,12.83
2017-04-16T05:53:14.347Z,12.82
2017-04-16T05:54:14.945Z,12.86
2017-04-16T05:55:15.561Z,12.79
2017-04-16T05:56:16.176Z,12.86
2017-04-16T05:57:16.777Z,12.82
2017-04-16T05:58:17.379Z,12.93
2017-04-16T05:59:17.984Z,12.93
2017-04-16T06:00:18.581Z,12.80
2017-04-16T06:01:19.180Z,12.80
2017-04-16T06:02:19.787Z,12.87
2017-04-16T06:03:20.384Z,12.86
2017-04-16T06:04:20.984Z,12.83
2017-04-16T06:05:21.584Z,12.79
2017-04-16T06:06:22.188Z,12.94
2017-04-16T06:07:22.787Z,12.86
2017-04-16T06:08:23.413Z,12.83
2017-04-16T06:09:24.007Z,12.83
2017-04-16T06:10:24.609Z,12.80
2017-04-16T06:11:25.223Z,12.83
2017-04-16T06:12:25.823Z,12.90
2017-04-16T06:13:26.423Z,12.91
2017-04-16T06:14:27.029Z,12.80
2017-04-16T06:15:27.714Z,12.86
2017-04-16T06:16:28.313Z,12.90
2017-04-16T06:17:28.939Z,12.91
2017-04-16T06:18:29.628Z,12.98
2017-04-16T06:19:30.315Z,12.94
2017-04-16T06:20:30.913Z,13.04
2017-04-16T06:21:31.537Z,13.05
2017-04-16T06:22:32.229Z,13.00
2017-04-16T06:23:32.836Z,13.03
2017-04-16T06:24:33.506Z,13.03
2017-04-16T06:25:34.113Z,13.16
2017-04-16T06:26:34.712Z,13.15
2017-04-16T06:27:35.380Z,13.15
2017-04-16T06:28:36.003Z,13.15
2017-04-16T06:29:36.662Z,13.27
2017-04-16T06:30:37.289Z,13.27
2017-04-16T06:31:37.890Z,13.20
2017-04-16T06:32:38.561Z,13.28
2017-04-16T06:33:39.168Z,13.37
2017-04-16T06:34:39.816Z,13.33
2017-04-16T06:35:40.417Z,13.49
2017-04-16T06:36:41.101Z,13.47
2017-04-16T06:37:41.780Z,13.53
2017-04-16T06:38:42.383Z,13.54
2017-04-16T06:39:42.995Z,13.57
2017-04-16T06:40:43.598Z,13.59
2017-04-16T06:41:44.240Z,13.62
2017-04-16T06:42:44.906Z,13.62
2017-04-16T06:43:45.514Z,13.70
2017-04-16T06:44:46.114Z,13.65
2017-04-16T06:45:46.810Z,13.77
2017-04-16T06:48:03.195Z,13.77
2017-04-16T06:49:04.069Z,13.78
2017-04-16T06:50:04.671Z,13.75
2017-04-16T06:51:05.299Z,13.87
2017-04-16T06:52:05.928Z,13.86
2017-04-16T06:53:06.830Z,13.81
2017-04-16T06:54:07.736Z,13.87
2017-04-16T06:55:08.342Z,13.87
2017-04-16T06:56:08.940Z,13.77
2017-04-16T06:57:09.596Z,13.72
2017-04-16T06:58:10.194Z,13.71
2017-04-16T06:59:10.810Z,13.68
2017-04-16T07:00:11.420Z,13.75
2017-04-16T07:01:12.025Z,13.62
2017-04-16T07:02:12.700Z,13.65
2017-04-16T07:03:13.313Z,13.60
2017-04-16T07:04:13.915Z,13.56
2017-04-16T07:05:14.516Z,13.65
2017-04-16T07:06:15.120Z,13.57
2017-04-16T07:07:15.721Z,13.63
2017-04-16T07:08:16.383Z,13.60
2017-04-16T07:09:17.039Z,13.68
2017-04-16T07:10:17.645Z,13.68
2017-04-16T07:11:18.247Z,13.70
2017-04-16T07:12:18.854Z,13.74
2017-04-16T07:13:19.470Z,13.74
2017-04-16T07:14:20.072Z,13.68
2017-04-16T07:15:20.674Z,13.74
2017-04-16T07:16:21.280Z,13.77
2017-04-16T07:17:21.880Z,13.81
2017-04-16T07:18:22.483Z,13.81
2017-04-16T07:19:23.100Z,13.74
2017-04-16T07:20:23.718Z,13.77
2017-04-16T07:21:24.319Z,13.74
2017-04-16T07:22:24.928Z,13.81
2017-04-16T07:23:25.534Z,13.77
2017-04-16T07:24:26.135Z,13.75
2017-04-16T07:25:26.735Z,13.75
2017-04-16T07:26:27.335Z,13.77
2017-04-16T07:27:27.935Z,13.78
2017-04-16T07:28:28.538Z,13.78
2017-04-16T07:29:29.234Z,13.74
2017-04-16T07:30:29.837Z,13.65
2017-04-16T07:31:30.460Z,13.74
2017-04-16T07:32:31.059Z,13.71
2017-04-16T07:33:31.659Z,13.65
2017-04-16T07:34:32.262Z,13.71
2017-04-16T07:35:32.864Z,13.68
2017-04-16T07:36:33.482Z,13.72
2017-04-16T07:37:34.104Z,13.72
2017-04-16T07:38:34.702Z,13.77
2017-04-16T07:39:35.303Z,13.74
2017-04-16T07:40:35.907Z,13.81
2017-04-16T07:41:36.510Z,13.79
2017-04-16T07:42:37.112Z,13.90
2017-04-16T07:43:37.716Z,13.92
2017-04-16T07:44:38.318Z,14.05
2017-04-16T07:45:38.924Z,14.04
2017-04-16T07:46:39.527Z,14.07
2017-04-16T07:47:40.130Z,14.17
2017-04-16T07:48:40.733Z,14.32
2017-04-16T07:49:41.338Z,14.29
2017-04-16T07:50:41.940Z,14.36
2017-04-16T07:51:42.545Z,14.33
2017-04-16T07:52:43.146Z,14.28
2017-04-16T07:53:43.748Z,14.40
2017-04-16T07:54:44.350Z,14.36
2017-04-16T07:55:44.959Z,14.35
2017-04-16T07:56:45.562Z,14.35
2017-04-16T07:57:46.164Z,14.35
2017-04-16T07:58:46.765Z,14.33
2017-04-16T07:59:47.390Z,14.40
2017-04-16T08:00:48.054Z,14.33
2017-04-16T08:01:48.659Z,14.35
2017-04-16T08:02:49.263Z,14.35
2017-04-16T08:03:49.882Z,14.50
2017-04-16T08:04:50.485Z,14.45
2017-04-16T08:05:51.094Z,14.50
2017-04-16T08:06:51.695Z,14.51
2017-04-16T08:07:52.319Z,14.54
2017-04-16T08:08:52.926Z,14.54
2017-04-16T08:09:53.522Z,14.55
2017-04-16T08:10:54.126Z,14.55
2017-04-16T08:11:54.735Z,14.58
2017-04-16T08:12:55.335Z,14.55
2017-04-16T08:13:55.938Z,14.44
2017-04-16T08:14:56.540Z,14.48
2017-04-16T08:15:57.163Z,14.47
2017-04-16T08:16:57.762Z,14.35
2017-04-16T08:17:58.367Z,14.37
2017-04-16T08:18:58.970Z,14.35
2017-04-16T08:19:59.571Z,14.36
2017-04-16T08:21:00.176Z,14.25
2017-04-16T08:22:00.777Z,14.36
2017-04-16T08:23:01.381Z,14.23
2017-04-16T08:24:01.986Z,14.20
2017-04-16T08:25:02.604Z,14.22
2017-04-16T08:26:03.211Z,14.17
2017-04-16T08:27:03.810Z,14.11
2017-04-16T08:28:04.413Z,14.20
2017-04-16T08:29:05.015Z,14.14
2017-04-16T08:30:05.619Z,14.17
2017-04-16T08:31:06.223Z,14.10
2017-04-16T08:32:06.846Z,14.10
2017-04-16T08:33:07.449Z,14.10
2017-04-16T08:34:08.050Z,14.11
2017-04-16T08:35:08.652Z,14.07
2017-04-16T08:36:09.254Z,14.10
2017-04-16T08:37:09.871Z,14.08
2017-04-16T08:38:10.474Z,14.18
2017-04-16T08:39:11.079Z,14.14
2017-04-16T08:40:11.682Z,14.18
2017-04-16T08:41:12.307Z,14.29
2017-04-16T08:42:12.914Z,14.22
2017-04-16T08:43:13.530Z,14.22
2017-04-16T08:44:14.141Z,14.23
2017-04-16T08:45:14.746Z,14.23
2017-04-16T08:46:15.363Z,14.28
2017-04-16T08:47:15.967Z,14.41
2017-04-16T08:48:16.586Z,14.35
2017-04-16T08:49:17.192Z,14.33
2017-04-16T08:50:17.806Z,14.41
2017-04-16T08:51:18.401Z,14.45
2017-04-16T08:52:19.009Z,14.45
2017-04-16T08:53:19.611Z,14.58
2017-04-16T08:54:20.214Z,14.59
2017-04-16T08:55:20.819Z,14.69
2017-04-16T08:56:21.430Z,14.79
2017-04-16T08:57:22.031Z,14.86
2017-04-16T08:58:22.634Z,15.06
2017-04-16T08:59:23.245Z,15.25
2017-04-16T09:00:23.846Z,15.37
2017-04-16T09:01:24.452Z,15.54
2017-04-16T09:02:25.057Z,15.55
2017-04-16T09:03:25.660Z,15.70
2017-04-16T09:04:26.265Z,15.79
2017-04-16T09:05:26.871Z,15.75
2017-04-16T09:06:27.476Z,15.76
2017-04-16T09:07:28.081Z,15.72
2017-04-16T09:08:28.686Z,15.70
2017-04-16T09:09:29.290Z,15.75
2017-04-16T09:10:29.900Z,15.77
2017-04-16T09:11:30.502Z,15.75
2017-04-16T09:12:31.108Z,15.72
2017-04-16T09:13:31.715Z,15.79
2017-04-16T09:14:32.320Z,15.76
2017-04-16T09:15:32.930Z,15.76
2017-04-16T09:16:33.532Z,15.70
2017-04-16T09:17:34.137Z,15.72
2017-04-16T09:18:34.744Z,15.73
2017-04-16T09:19:35.350Z,15.72
2017-04-16T09:20:35.955Z,15.67
2017-04-16T09:21:36.565Z,15.64
2017-04-16T09:22:37.173Z,15.59
2017-04-16T09:23:37.782Z,15.73
2017-04-16T09:24:38.401Z,15.58
2017-04-16T09:25:39.005Z,15.59
2017-04-16T09:26:39.609Z,15.57
2017-04-16T09:27:40.234Z,15.52
2017-04-16T09:28:40.852Z,15.49
2017-04-16T09:29:41.456Z,15.31
2017-04-16T09:30:42.059Z,15.33
2017-04-16T09:31:42.664Z,15.19
2017-04-16T09:32:43.272Z,15.22
2017-04-16T09:33:43.872Z,15.11
2017-04-16T09:34:44.475Z,15.14
2017-04-16T09:35:45.083Z,15.09
2017-04-16T09:36:45.690Z,15.06
2017-04-16T09:37:46.291Z,15.02
2017-04-16T09:38:46.893Z,14.99
2017-04-16T09:39:47.496Z,14.79
2017-04-16T09:40:48.099Z,14.85
2017-04-16T09:41:48.720Z,14.79
2017-04-16T09:42:49.323Z,14.70
2017-04-16T09:43:49.925Z,14.70
2017-04-16T09:44:50.530Z,14.69
2017-04-16T09:45:51.139Z,14.60
2017-04-16T09:46:51.738Z,14.48
2017-04-16T09:47:52.342Z,14.53
2017-04-16T09:48:52.945Z,14.55
2017-04-16T09:49:53.551Z,14.37
2017-04-16T09:50:54.151Z,14.36
2017-04-16T09:51:54.758Z,14.32
2017-04-16T09:52:55.377Z,14.33
2017-04-16T09:53:55.979Z,14.28
2017-04-16T09:54:56.588Z,14.23
2017-04-16T09:55:57.192Z,14.18
2017-04-16T09:56:57.815Z,14.23
2017-04-16T09:57:58.400Z,14.15
2017-04-16T09:58:58.999Z,14.17
2017-04-16T09:59:59.618Z,14.18
2017-04-16T10:01:00.218Z,14.28
2017-04-16T10:02:00.822Z,14.20
2017-04-16T10:03:01.440Z,14.22
2017-04-16T10:04:02.043Z,14.14
2017-04-16T10:05:02.646Z,14.28
2017-04-16T10:06:03.250Z,14.22
2017-04-16T10:07:03.856Z,14.22
2017-04-16T10:08:04.458Z,14.17
2017-04-16T10:09:05.061Z,14.30
2017-04-16T10:10:05.671Z,14.25
2017-04-16T10:11:06.271Z,14.30
2017-04-16T10:12:06.875Z,14.30
2017-04-16T10:13:07.493Z,14.32
2017-04-16T10:14:08.099Z,14.32
2017-04-16T10:15:08.710Z,14.36
2017-04-16T10:16:09.362Z,14.32
2017-04-16T10:17:09.970Z,14.48
2017-04-16T10:18:10.589Z,14.44
2017-04-16T10:19:11.199Z,14.62
2017-04-16T10:20:11.799Z,14.70
2017-04-16T10:21:12.403Z,14.78
2017-04-16T10:22:13.023Z,14.78
2017-04-16T10:23:13.626Z,14.96
2017-04-16T10:24:14.232Z,14.96
2017-04-16T10:25:15.041Z,15.02
2017-04-16T10:26:15.652Z,15.03
2017-04-16T10:27:16.253Z,14.91
2017-04-16T10:28:16.861Z,14.91
2017-04-16T10:29:17.466Z,14.86
2017-04-16T10:30:18.073Z,14.92
2017-04-16T10:31:18.674Z,14.88
2017-04-16T10:32:19.280Z,14.97
2017-04-16T10:33:19.884Z,14.86
2017-04-16T10:34:20.494Z,15.03
2017-04-16T10:35:21.115Z,14.89
2017-04-16T10:36:21.719Z,15.03
2017-04-16T10:37:22.340Z,15.03
2017-04-16T10:38:22.943Z,15.10
2017-04-16T10:39:23.552Z,15.11
2017-04-16T10:40:24.155Z,15.09
2017-04-16T10:41:24.765Z,15.11
2017-04-16T10:42:25.374Z,15.07
2017-04-16T10:43:25.984Z,15.15
2017-04-16T10:44:26.586Z,15.06
2017-04-16T10:45:27.190Z,15.11
2017-04-16T10:46:27.808Z,15.06
2017-04-16T10:47:28.411Z,15.09
2017-04-16T10:48:29.022Z,15.00
2017-04-16T10:49:29.624Z,15.06
2017-04-16T10:50:30.227Z,15.09
2017-04-16T10:51:30.831Z,15.04
2017-04-16T10:52:31.434Z,15.00
2017-04-16T10:53:32.046Z,14.99
2017-04-16T10:54:32.644Z,14.97
2017-04-16T10:55:33.247Z,14.99
2017-04-16T10:56:33.850Z,14.99
2017-04-16T10:57:34.452Z,14.89
2017-04-16T10:58:35.057Z,14.86
2017-04-16T10:59:35.660Z,14.85
2017-04-16T11:00:36.278Z,14.77
2017-04-16T11:01:36.882Z,14.79
2017-04-16T11:02:37.486Z,14.72
2017-04-16T11:03:38.090Z,14.69
2017-04-16T11:04:38.708Z,14.66
2017-04-16T11:05:39.319Z,14.62
2017-04-16T11:06:39.924Z,14.60
2017-04-16T11:07:40.540Z,14.59
2017-04-16T11:08:41.145Z,14.62
2017-04-16T11:09:41.748Z,14.68
2017-04-16T11:10:42.353Z,14.68
2017-04-16T11:11:42.977Z,14.81
2017-04-16T11:12:43.598Z,14.63
2017-04-16T11:13:44.201Z,14.63
2017-04-16T11:14:44.804Z,14.78
2017-04-16T11:15:45.422Z,14.63
2017-04-16T11:16:46.030Z,14.73
2017-04-16T11:17:46.631Z,14.68
2017-04-16T11:18:47.236Z,14.70
2017-04-16T11:19:47.844Z,14.79
2017-04-16T11:20:48.451Z,14.82
2017-04-16T11:21:49.057Z,14.92
2017-04-16T11:22:49.677Z,14.89
2017-04-16T11:23:50.283Z,15.00
2017-04-16T11:24:50.893Z,15.03
2017-04-16T11:25:51.495Z,15.10
2017-04-16T11:26:52.100Z,15.21
2017-04-16T11:27:52.705Z,15.19
2017-04-16T11:28:53.309Z,15.25
2017-04-16T11:29:53.921Z,15.37
2017-04-16T11:30:54.524Z,15.37
2017-04-16T11:31:55.144Z,15.43
2017-04-16T11:32:55.761Z,15.35
2017-04-16T11:33:56.366Z,15.37
2017-04-16T11:34:56.970Z,15.33
2017-04-16T11:35:57.579Z,15.31
2017-04-16T11:36:58.181Z,15.27
2017-04-16T11:37:58.807Z,15.19
2017-04-16T11:38:59.407Z,15.21
2017-04-16T11:40:00.013Z,15.22
2017-04-16T11:41:00.616Z,15.29
2017-04-16T11:42:01.223Z,15.31
2017-04-16T11:43:01.826Z,15.37
2017-04-16T11:44:02.445Z,15.46
2017-04-16T11:45:03.050Z,15.49
2017-04-16T11:46:03.671Z,15.49
2017-04-16T11:47:04.290Z,15.54
2017-04-16T11:48:05.099Z,15.57
2017-04-16T11:49:05.701Z,15.52
2017-04-16T11:50:06.307Z,15.57
2017-04-16T11:51:06.911Z,15.58
2017-04-16T11:52:07.515Z,15.72
2017-04-16T11:53:08.119Z,15.68
2017-04-16T11:54:08.724Z,15.64
2017-04-16T11:55:09.352Z,15.57
2017-04-16T11:56:09.953Z,15.47
2017-04-16T11:57:10.563Z,15.55
2017-04-16T11:58:11.166Z,15.49
2017-04-16T11:59:11.769Z,15.49
2017-04-16T12:00:12.377Z,15.51
2017-04-16T12:01:12.987Z,15.46
2017-04-16T12:02:13.589Z,15.51
2017-04-16T12:03:14.194Z,15.47
2017-04-16T12:04:14.797Z,15.57
2017-04-16T12:05:15.401Z,15.49
2017-04-16T12:06:16.013Z,15.57
2017-04-16T12:07:16.616Z,15.59
2017-04-16T12:08:17.220Z,15.64
2017-04-16T12:09:17.830Z,15.70
2017-04-16T12:10:18.433Z,15.72
2017-04-16T12:11:19.037Z,15.75
2017-04-16T12:12:19.648Z,15.77
2017-04-16T12:13:20.258Z,15.70
2017-04-16T12:14:20.861Z,15.76
2017-04-16T12:15:21.464Z,15.77
2017-04-16T12:16:22.068Z,15.73
2017-04-16T12:17:22.670Z,15.75
2017-04-16T12:18:23.276Z,15.73
2017-04-16T12:19:23.888Z,15.64
2017-04-16T12:20:24.496Z,15.58
2017-04-16T12:21:25.096Z,15.59
2017-04-16T12:22:25.706Z,15.65
2017-04-16T12:23:26.310Z,15.65
2017-04-16T12:24:26.929Z,15.70
2017-04-16T12:25:27.534Z,15.68
2017-04-16T12:26:28.144Z,15.61
2017-04-16T12:27:28.746Z,15.62
2017-04-16T12:28:29.359Z,15.61
2017-04-16T12:29:29.960Z,15.64
2017-04-16T12:30:30.564Z,15.67
2017-04-16T12:31:31.169Z,15.72
2017-04-16T12:32:31.775Z,15.77
2017-04-16T12:33:32.377Z,15.68
2017-04-16T12:34:32.993Z,15.82
2017-04-16T12:35:33.597Z,15.80
2017-04-16T12:36:34.202Z,15.83
2017-04-16T12:37:34.806Z,15.90
2017-04-16T12:38:35.411Z,15.86
2017-04-16T12:39:36.015Z,15.98
2017-04-16T12:40:36.621Z,16.02
2017-04-16T12:41:37.241Z,16.05
2017-04-16T12:42:37.849Z,16.01
2017-04-16T12:43:38.457Z,16.08
2017-04-16T12:44:39.067Z,16.15
2017-04-16T12:45:39.691Z,16.26
2017-04-16T12:46:40.295Z,16.21
2017-04-16T12:47:40.916Z,16.29
2017-04-16T12:48:41.542Z,16.36
2017-04-16T12:49:42.146Z,16.42
2017-04-16T12:50:42.752Z,16.36
2017-04-16T12:51:43.357Z,16.28
2017-04-16T12:52:43.962Z,16.35
2017-04-16T12:53:44.567Z,16.35
2017-04-16T12:54:45.173Z,16.35
2017-04-16T12:55:45.780Z,16.38
2017-04-16T12:56:46.388Z,16.33
2017-04-16T12:57:46.998Z,16.39
2017-04-16T12:58:47.599Z,16.33
2017-04-16T12:59:48.206Z,16.36
2017-04-16T13:00:48.810Z,16.35
2017-04-16T13:01:49.417Z,16.32